sensor_id;sensor_type;location;lat;lon;timestamp;pressure;altitude;pressure_sealevel;temperature;humidity
46876;BME280;32866;50.160;14.768;2023-08-31T00:02:18;98619.84;;;11.87;100.00
46876;BME280;32866;50.160;14.768;2023-08-31T00:04:45;98566.47;;;11.55;100.00
46876;BME280;32866;50.160;14.768;2023-08-31T00:07:11;98585.63;;;11.64;100.00
46876;BME280;32866;50.160;14.768;2023-08-31T00:09:37;98612.06;;;11.85;100.00
46876;BME280;32866;50.160;14.768;2023-08-31T00:12:03;98618.47;;;11.92;100.00
46876;BME280;32866;50.160;14.768;2023-08-31T00:14:29;98585.28;;;11.71;100.00
46876;BME280;32866;50.160;14.768;2023-08-31T00:16:55;98589.38;;;11.76;100.00
46876;BME280;32866;50.160;14.768;2023-08-31T00:19:23;98631.47;;;12.15;100.00
46876;BME280;32866;50.160;14.768;2023-08-31T00:21:49;98615.56;;;11.95;100.00
46876;BME280;32866;50.160;14.768;2023-08-31T00:24:15;98576.19;;;11.89;100.00
46876;BME280;32866;50.160;14.768;2023-08-31T00:26:41;98590.97;;;12.01;100.00
46876;BME280;32866;50.160;14.768;2023-08-31T00:29:11;98622.28;;;12.18;100.00
46876;BME280;32866;50.160;14.768;2023-08-31T00:31:37;98630.81;;;12.20;100.00
46876;BME280;32866;50.160;14.768;2023-08-31T00:34:03;98592.22;;;11.91;100.00
46876;BME280;32866;50.160;14.768;2023-08-31T00:36:31;98627.53;;;12.07;100.00
46876;BME280;32866;50.160;14.768;2023-08-31T00:38:57;98575.56;;;11.70;100.00
46876;BME280;32866;50.160;14.768;2023-08-31T00:41:23;98623.56;;;12.08;100.00
46876;BME280;32866;50.160;14.768;2023-08-31T00:43:49;98591.22;;;11.79;100.00
46876;BME280;32866;50.160;14.768;2023-08-31T00:46:15;98626.63;;;12.10;100.00
46876;BME280;32866;50.160;14.768;2023-08-31T00:48:42;98623.22;;;12.15;100.00
46876;BME280;32866;50.160;14.768;2023-08-31T00:51:08;98632.69;;;12.14;100.00
46876;BME280;32866;50.160;14.768;2023-08-31T00:53:36;98594.72;;;11.79;100.00
46876;BME280;32866;50.160;14.768;2023-08-31T00:56:02;98604.56;;;11.95;100.00
46876;BME280;32866;50.160;14.768;2023-08-31T00:58:29;98629.56;;;12.21;100.00
46876;BME280;32866;50.160;14.768;2023-08-31T01:01:12;98633.56;;;12.20;100.00
46876;BME280;32866;50.160;14.768;2023-08-31T01:08:54;98637.81;;;12.21;100.00
46876;BME280;32866;50.160;14.768;2023-08-31T01:11:58;98614.97;;;11.91;100.00
46876;BME280;32866;50.160;14.768;2023-08-31T01:14:24;98624.66;;;12.01;100.00
46876;BME280;32866;50.160;14.768;2023-08-31T01:16:53;98612.81;;;11.86;100.00
46876;BME280;32866;50.160;14.768;2023-08-31T01:22:11;98612.34;;;11.97;100.00
46876;BME280;32866;50.160;14.768;2023-08-31T01:24:39;98638.53;;;12.07;100.00
46876;BME280;32866;50.160;14.768;2023-08-31T01:27:06;98622.09;;;11.98;100.00
46876;BME280;32866;50.160;14.768;2023-08-31T01:29:33;98589.59;;;11.63;100.00
46876;BME280;32866;50.160;14.768;2023-08-31T01:31:59;98639.66;;;11.91;100.00
46876;BME280;32866;50.160;14.768;2023-08-31T01:34:25;98638.75;;;11.85;100.00
46876;BME280;32866;50.160;14.768;2023-08-31T01:36:56;98619.78;;;11.63;100.00
46876;BME280;32866;50.160;14.768;2023-08-31T01:39:33;98590.84;;;11.52;100.00
46876;BME280;32866;50.160;14.768;2023-08-31T01:42:03;98639.25;;;11.74;100.00
46876;BME280;32866;50.160;14.768;2023-08-31T01:44:32;98641.72;;;11.72;100.00
46876;BME280;32866;50.160;14.768;2023-08-31T01:47:04;98594.91;;;11.33;100.00
46876;BME280;32866;50.160;14.768;2023-08-31T01:49:39;98596.41;;;11.34;100.00
46876;BME280;32866;50.160;14.768;2023-08-31T01:52:06;98606.19;;;11.26;100.00
46876;BME280;32866;50.160;14.768;2023-08-31T01:54:33;98646.63;;;11.59;100.00
46876;BME280;32866;50.160;14.768;2023-08-31T01:56:59;98640.56;;;11.45;100.00
46876;BME280;32866;50.160;14.768;2023-08-31T01:59:25;98602.28;;;11.08;100.00
46876;BME280;32866;50.160;14.768;2023-08-31T02:01:52;98635.44;;;11.38;100.00
46876;BME280;32866;50.160;14.768;2023-08-31T02:04:19;98628.72;;;11.30;100.00
46876;BME280;32866;50.160;14.768;2023-08-31T02:06:44;98645.00;;;11.43;100.00
46876;BME280;32866;50.160;14.768;2023-08-31T02:09:10;98589.81;;;10.98;100.00
46876;BME280;32866;50.160;14.768;2023-08-31T02:11:36;98649.75;;;11.24;100.00
46876;BME280;32866;50.160;14.768;2023-08-31T02:14:04;98657.53;;;11.35;100.00
46876;BME280;32866;50.160;14.768;2023-08-31T02:16:31;98651.44;;;11.30;100.00
46876;BME280;32866;50.160;14.768;2023-08-31T02:18:58;98633.38;;;10.96;100.00
46876;BME280;32866;50.160;14.768;2023-08-31T02:21:24;98617.81;;;11.11;100.00
46876;BME280;32866;50.160;14.768;2023-08-31T02:23:50;98656.75;;;11.34;100.00
46876;BME280;32866;50.160;14.768;2023-08-31T02:26:16;98622.88;;;10.94;100.00
46876;BME280;32866;50.160;14.768;2023-08-31T02:28:42;98653.25;;;11.24;100.00
46876;BME280;32866;50.160;14.768;2023-08-31T02:31:10;98643.38;;;11.18;100.00
46876;BME280;32866;50.160;14.768;2023-08-31T02:33:36;98629.09;;;10.95;100.00
46876;BME280;32866;50.160;14.768;2023-08-31T02:36:03;98641.88;;;11.07;100.00
46876;BME280;32866;50.160;14.768;2023-08-31T02:38:29;98650.09;;;11.07;100.00
46876;BME280;32866;50.160;14.768;2023-08-31T02:40:55;98653.44;;;11.02;100.00
46876;BME280;32866;50.160;14.768;2023-08-31T02:43:21;98646.47;;;11.01;100.00
46876;BME280;32866;50.160;14.768;2023-08-31T02:45:47;98648.88;;;10.99;100.00
46876;BME280;32866;50.160;14.768;2023-08-31T02:48:13;98651.94;;;11.01;100.00
46876;BME280;32866;50.160;14.768;2023-08-31T02:50:39;98647.06;;;11.05;100.00
46876;BME280;32866;50.160;14.768;2023-08-31T02:53:05;98651.50;;;11.03;100.00
46876;BME280;32866;50.160;14.768;2023-08-31T02:55:34;98604.16;;;10.56;100.00
46876;BME280;32866;50.160;14.768;2023-08-31T02:58:00;98639.47;;;10.82;100.00
46876;BME280;32866;50.160;14.768;2023-08-31T03:00:26;98609.03;;;10.61;100.00
46876;BME280;32866;50.160;14.768;2023-08-31T03:02:52;98621.97;;;10.70;100.00
46876;BME280;32866;50.160;14.768;2023-08-31T03:05:18;98616.34;;;10.64;100.00
46876;BME280;32866;50.160;14.768;2023-08-31T03:07:44;98648.59;;;10.88;100.00
46876;BME280;32866;50.160;14.768;2023-08-31T03:10:11;98644.78;;;10.85;100.00
46876;BME280;32866;50.160;14.768;2023-08-31T03:12:37;98633.97;;;10.82;100.00
46876;BME280;32866;50.160;14.768;2023-08-31T03:15:04;98642.66;;;10.80;100.00
46876;BME280;32866;50.160;14.768;2023-08-31T03:17:30;98631.09;;;10.76;100.00
46876;BME280;32866;50.160;14.768;2023-08-31T03:19:56;98632.31;;;10.84;100.00
46876;BME280;32866;50.160;14.768;2023-08-31T03:22:23;98612.97;;;10.69;100.00
46876;BME280;32866;50.160;14.768;2023-08-31T03:24:49;98644.63;;;10.89;100.00
46876;BME280;32866;50.160;14.768;2023-08-31T03:27:15;98634.56;;;11.04;100.00
46876;BME280;32866;50.160;14.768;2023-08-31T03:29:45;98614.34;;;10.74;100.00
46876;BME280;32866;50.160;14.768;2023-08-31T03:32:11;98650.72;;;11.02;100.00
46876;BME280;32866;50.160;14.768;2023-08-31T03:34:37;98625.75;;;10.82;100.00
46876;BME280;32866;50.160;14.768;2023-08-31T03:37:03;98646.31;;;11.05;100.00
46876;BME280;32866;50.160;14.768;2023-08-31T03:39:29;98651.75;;;11.14;100.00
46876;BME280;32866;50.160;14.768;2023-08-31T03:41:54;98614.94;;;10.87;100.00
46876;BME280;32866;50.160;14.768;2023-08-31T03:44:21;98651.25;;;11.34;100.00
46876;BME280;32866;50.160;14.768;2023-08-31T03:46:47;98654.22;;;11.64;100.00
46876;BME280;32866;50.160;14.768;2023-08-31T03:49:13;98616.72;;;11.70;100.00
46876;BME280;32866;50.160;14.768;2023-08-31T03:51:39;98638.78;;;12.18;100.00
46876;BME280;32866;50.160;14.768;2023-08-31T03:54:05;98666.94;;;12.52;100.00
46876;BME280;32866;50.160;14.768;2023-08-31T03:56:31;98663.59;;;12.72;100.00
46876;BME280;32866;50.160;14.768;2023-08-31T03:58:57;98667.88;;;12.88;100.00
46876;BME280;32866;50.160;14.768;2023-08-31T04:01:23;98631.38;;;12.73;100.00
46876;BME280;32866;50.160;14.768;2023-08-31T04:03:49;98675.78;;;13.10;100.00
46876;BME280;32866;50.160;14.768;2023-08-31T04:06:15;98679.34;;;13.26;100.00
46876;BME280;32866;50.160;14.768;2023-08-31T04:08:41;98683.13;;;13.28;100.00
46876;BME280;32866;50.160;14.768;2023-08-31T04:11:07;98657.13;;;13.14;100.00
46876;BME280;32866;50.160;14.768;2023-08-31T04:13:33;98676.91;;;13.43;100.00
46876;BME280;32866;50.160;14.768;2023-08-31T04:15:59;98679.38;;;13.41;100.00
46876;BME280;32866;50.160;14.768;2023-08-31T04:18:25;98648.13;;;13.14;100.00
46876;BME280;32866;50.160;14.768;2023-08-31T04:20:53;98665.19;;;13.18;100.00
46876;BME280;32866;50.160;14.768;2023-08-31T04:23:19;98694.41;;;13.30;100.00
46876;BME280;32866;50.160;14.768;2023-08-31T04:25:46;98657.75;;;12.94;100.00
46876;BME280;32866;50.160;14.768;2023-08-31T04:28:13;98659.81;;;12.85;100.00
46876;BME280;32866;50.160;14.768;2023-08-31T04:30:40;98676.53;;;12.96;100.00
46876;BME280;32866;50.160;14.768;2023-08-31T04:33:06;98696.16;;;13.04;100.00
46876;BME280;32866;50.160;14.768;2023-08-31T04:35:33;98696.75;;;13.08;100.00
46876;BME280;32866;50.160;14.768;2023-08-31T04:37:59;98697.78;;;13.10;100.00
46876;BME280;32866;50.160;14.768;2023-08-31T04:40:27;98707.84;;;13.13;100.00
46876;BME280;32866;50.160;14.768;2023-08-31T04:42:52;98719.63;;;13.14;100.00
46876;BME280;32866;50.160;14.768;2023-08-31T04:45:19;98712.59;;;13.13;100.00
46876;BME280;32866;50.160;14.768;2023-08-31T04:47:45;98718.56;;;13.11;100.00
46876;BME280;32866;50.160;14.768;2023-08-31T04:50:11;98725.28;;;13.10;100.00
46876;BME280;32866;50.160;14.768;2023-08-31T04:52:37;98729.00;;;13.07;100.00
46876;BME280;32866;50.160;14.768;2023-08-31T04:55:05;98691.09;;;12.72;100.00
46876;BME280;32866;50.160;14.768;2023-08-31T04:57:34;98731.16;;;13.03;100.00
46876;BME280;32866;50.160;14.768;2023-08-31T05:00:01;98738.38;;;13.01;100.00
46876;BME280;32866;50.160;14.768;2023-08-31T05:02:27;98740.94;;;13.04;100.00
46876;BME280;32866;50.160;14.768;2023-08-31T05:04:53;98745.50;;;13.07;100.00
46876;BME280;32866;50.160;14.768;2023-08-31T05:07:19;98712.53;;;12.83;100.00
46876;BME280;32866;50.160;14.768;2023-08-31T05:09:45;98708.94;;;12.77;100.00
46876;BME280;32866;50.160;14.768;2023-08-31T05:12:11;98732.97;;;13.06;100.00
46876;BME280;32866;50.160;14.768;2023-08-31T05:14:38;98752.47;;;13.17;100.00
46876;BME280;32866;50.160;14.768;2023-08-31T05:17:06;98731.34;;;12.99;100.00
46876;BME280;32866;50.160;14.768;2023-08-31T05:19:32;98763.09;;;13.25;100.00
46876;BME280;32866;50.160;14.768;2023-08-31T05:21:58;98721.09;;;13.00;100.00
46876;BME280;32866;50.160;14.768;2023-08-31T05:24:24;98744.91;;;13.27;100.00
46876;BME280;32866;50.160;14.768;2023-08-31T05:26:50;98762.22;;;13.43;100.00
46876;BME280;32866;50.160;14.768;2023-08-31T05:29:16;98721.59;;;13.13;100.00
46876;BME280;32866;50.160;14.768;2023-08-31T05:31:42;98776.81;;;13.49;100.00
46876;BME280;32866;50.160;14.768;2023-08-31T05:34:16;98770.38;;;13.52;100.00
46876;BME280;32866;50.160;14.768;2023-08-31T05:36:42;98741.84;;;13.25;100.00
46876;BME280;32866;50.160;14.768;2023-08-31T05:39:08;98776.34;;;13.65;100.00
46876;BME280;32866;50.160;14.768;2023-08-31T05:41:35;98784.16;;;13.67;100.00
46876;BME280;32866;50.160;14.768;2023-08-31T05:44:01;98784.44;;;13.69;100.00
46876;BME280;32866;50.160;14.768;2023-08-31T05:46:27;98790.91;;;13.66;100.00
46876;BME280;32866;50.160;14.768;2023-08-31T05:48:53;98744.72;;;13.31;100.00
46876;BME280;32866;50.160;14.768;2023-08-31T05:51:19;98800.94;;;13.54;100.00
46876;BME280;32866;50.160;14.768;2023-08-31T05:53:45;98761.66;;;13.14;100.00
46876;BME280;32866;50.160;14.768;2023-08-31T05:56:11;98773.22;;;13.18;100.00
46876;BME280;32866;50.160;14.768;2023-08-31T05:58:37;98777.13;;;13.27;100.00
46876;BME280;32866;50.160;14.768;2023-08-31T06:01:05;98800.94;;;13.39;100.00
46876;BME280;32866;50.160;14.768;2023-08-31T06:03:31;98795.88;;;13.38;100.00
46876;BME280;32866;50.160;14.768;2023-08-31T06:05:58;98787.38;;;13.26;100.00
46876;BME280;32866;50.160;14.768;2023-08-31T06:08:25;98804.72;;;13.42;100.00
46876;BME280;32866;50.160;14.768;2023-08-31T06:10:51;98806.44;;;13.39;100.00
46876;BME280;32866;50.160;14.768;2023-08-31T06:13:17;98807.94;;;13.40;100.00
46876;BME280;32866;50.160;14.768;2023-08-31T06:15:43;98766.88;;;13.12;100.00
46876;BME280;32866;50.160;14.768;2023-08-31T06:18:10;98805.88;;;13.50;100.00
46876;BME280;32866;50.160;14.768;2023-08-31T06:20:36;98800.38;;;13.50;100.00
46876;BME280;32866;50.160;14.768;2023-08-31T06:23:02;98823.38;;;13.77;100.00
46876;BME280;32866;50.160;14.768;2023-08-31T06:25:28;98826.22;;;13.82;100.00
46876;BME280;32866;50.160;14.768;2023-08-31T06:27:54;98803.22;;;13.41;100.00
46876;BME280;32866;50.160;14.768;2023-08-31T06:30:20;98846.94;;;13.78;100.00
46876;BME280;32866;50.160;14.768;2023-08-31T06:32:47;98844.47;;;13.80;100.00
46876;BME280;32866;50.160;14.768;2023-08-31T06:35:14;98821.06;;;13.60;100.00
46876;BME280;32866;50.160;14.768;2023-08-31T06:37:41;98851.56;;;13.71;100.00
46876;BME280;32866;50.160;14.768;2023-08-31T06:40:08;98847.28;;;13.70;100.00
46876;BME280;32866;50.160;14.768;2023-08-31T06:42:35;98819.91;;;13.52;100.00
46876;BME280;32866;50.160;14.768;2023-08-31T06:45:03;98845.00;;;13.69;100.00
46876;BME280;32866;50.160;14.768;2023-08-31T06:47:29;98839.88;;;13.77;100.00
46876;BME280;32866;50.160;14.768;2023-08-31T06:49:55;98791.63;;;13.51;100.00
46876;BME280;32866;50.160;14.768;2023-08-31T06:52:21;98836.88;;;13.89;100.00
46876;BME280;32866;50.160;14.768;2023-08-31T06:54:47;98798.38;;;13.65;100.00
46876;BME280;32866;50.160;14.768;2023-08-31T06:57:13;98846.28;;;13.98;100.00
46876;BME280;32866;50.160;14.768;2023-08-31T06:59:39;98791.88;;;13.78;100.00
46876;BME280;32866;50.160;14.768;2023-08-31T07:02:06;98802.78;;;14.02;100.00
46876;BME280;32866;50.160;14.768;2023-08-31T07:04:32;98849.78;;;14.43;100.00
46876;BME280;32866;50.160;14.768;2023-08-31T07:06:58;98840.09;;;14.83;100.00
46876;BME280;32866;50.160;14.768;2023-08-31T07:09:23;98841.31;;;15.38;100.00
46876;BME280;32866;50.160;14.768;2023-08-31T07:11:49;98799.91;;;15.58;100.00
46876;BME280;32866;50.160;14.768;2023-08-31T07:14:16;98858.38;;;16.36;100.00
46876;BME280;32866;50.160;14.768;2023-08-31T07:16:42;98857.38;;;16.39;100.00
46876;BME280;32866;50.160;14.768;2023-08-31T07:19:08;98844.50;;;16.30;100.00
46876;BME280;32866;50.160;14.768;2023-08-31T07:21:35;98844.63;;;16.15;100.00
46876;BME280;32866;50.160;14.768;2023-08-31T07:24:01;98875.28;;;16.17;100.00
46876;BME280;32866;50.160;14.768;2023-08-31T07:26:27;98879.22;;;15.79;100.00
46876;BME280;32866;50.160;14.768;2023-08-31T07:28:53;98837.66;;;15.93;100.00
46876;BME280;32866;50.160;14.768;2023-08-31T07:31:18;98881.84;;;15.93;100.00
46876;BME280;32866;50.160;14.768;2023-08-31T07:33:45;98838.94;;;15.72;100.00
46876;BME280;32866;50.160;14.768;2023-08-31T07:36:11;98888.50;;;16.65;100.00
46876;BME280;32866;50.160;14.768;2023-08-31T07:38:37;98871.03;;;19.02;100.00
46876;BME280;32866;50.160;14.768;2023-08-31T07:41:03;98899.56;;;22.49;100.00
46876;BME280;32866;50.160;14.768;2023-08-31T07:43:29;98863.50;;;25.27;100.00
46876;BME280;32866;50.160;14.768;2023-08-31T07:45:55;98896.78;;;26.50;100.00
46876;BME280;32866;50.160;14.768;2023-08-31T07:48:21;98851.50;;;25.63;100.00
46876;BME280;32866;50.160;14.768;2023-08-31T07:50:47;98900.88;;;26.41;95.68
46876;BME280;32866;50.160;14.768;2023-08-31T07:53:14;98911.00;;;26.98;90.21
46876;BME280;32866;50.160;14.768;2023-08-31T07:55:40;98903.97;;;27.53;75.74
46876;BME280;32866;50.160;14.768;2023-08-31T07:58:06;98901.88;;;26.67;65.45
46876;BME280;32866;50.160;14.768;2023-08-31T08:00:32;98902.59;;;24.19;72.52
46876;BME280;32866;50.160;14.768;2023-08-31T08:02:58;98907.28;;;23.42;77.04
46876;BME280;32866;50.160;14.768;2023-08-31T08:05:24;98917.06;;;24.10;77.59
46876;BME280;32866;50.160;14.768;2023-08-31T08:07:50;98917.22;;;24.25;72.15
46876;BME280;32866;50.160;14.768;2023-08-31T08:10:16;98918.28;;;20.19;90.46
46876;BME280;32866;50.160;14.768;2023-08-31T08:12:42;98916.75;;;18.89;100.00
46876;BME280;32866;50.160;14.768;2023-08-31T08:15:12;98920.25;;;18.33;100.00
46876;BME280;32866;50.160;14.768;2023-08-31T08:17:38;98916.66;;;17.99;100.00
46876;BME280;32866;50.160;14.768;2023-08-31T08:20:05;98918.88;;;17.84;100.00
46876;BME280;32866;50.160;14.768;2023-08-31T08:22:32;98922.88;;;17.83;100.00
46876;BME280;32866;50.160;14.768;2023-08-31T08:24:58;98896.34;;;17.53;100.00
46876;BME280;32866;50.160;14.768;2023-08-31T08:27:24;98929.94;;;17.29;100.00
46876;BME280;32866;50.160;14.768;2023-08-31T08:29:50;98938.16;;;17.12;100.00
46876;BME280;32866;50.160;14.768;2023-08-31T08:32:16;98941.63;;;17.01;100.00
46876;BME280;32866;50.160;14.768;2023-08-31T08:34:41;98943.94;;;17.09;100.00
46876;BME280;32866;50.160;14.768;2023-08-31T08:37:07;98924.91;;;17.28;100.00
46876;BME280;32866;50.160;14.768;2023-08-31T08:39:33;98927.06;;;17.50;100.00
46876;BME280;32866;50.160;14.768;2023-08-31T08:41:59;98940.34;;;17.40;100.00
46876;BME280;32866;50.160;14.768;2023-08-31T08:44:25;98934.16;;;17.62;100.00
46876;BME280;32866;50.160;14.768;2023-08-31T08:46:52;98929.84;;;17.61;100.00
46876;BME280;32866;50.160;14.768;2023-08-31T08:49:21;98937.66;;;17.57;100.00
46876;BME280;32866;50.160;14.768;2023-08-31T08:51:49;98906.50;;;17.73;100.00
46876;BME280;32866;50.160;14.768;2023-08-31T08:54:18;98934.97;;;17.79;100.00
46876;BME280;32866;50.160;14.768;2023-08-31T08:56:44;98896.06;;;16.97;100.00
46876;BME280;32866;50.160;14.768;2023-08-31T08:59:10;98917.50;;;16.76;100.00
46876;BME280;32866;50.160;14.768;2023-08-31T09:01:39;98936.94;;;16.81;100.00
46876;BME280;32866;50.160;14.768;2023-08-31T09:04:06;98929.94;;;17.29;100.00
46876;BME280;32866;50.160;14.768;2023-08-31T09:06:35;98940.38;;;18.11;100.00
46876;BME280;32866;50.160;14.768;2023-08-31T09:09:01;98934.84;;;18.23;98.11
46876;BME280;32866;50.160;14.768;2023-08-31T09:11:27;98931.75;;;17.98;99.93
46876;BME280;32866;50.160;14.768;2023-08-31T09:13:53;98945.03;;;17.83;100.00
46876;BME280;32866;50.160;14.768;2023-08-31T09:16:26;98945.41;;;17.47;100.00
46876;BME280;32866;50.160;14.768;2023-08-31T09:18:54;98932.34;;;16.73;100.00
46876;BME280;32866;50.160;14.768;2023-08-31T09:21:21;98957.88;;;16.62;100.00
46876;BME280;32866;50.160;14.768;2023-08-31T09:23:57;98952.91;;;16.40;100.00
46876;BME280;32866;50.160;14.768;2023-08-31T09:26:23;98926.88;;;16.00;100.00
46876;BME280;32866;50.160;14.768;2023-08-31T09:28:49;98961.03;;;16.23;100.00
46876;BME280;32866;50.160;14.768;2023-08-31T09:31:16;98960.50;;;16.45;100.00
46876;BME280;32866;50.160;14.768;2023-08-31T09:33:51;98958.50;;;17.47;100.00
46876;BME280;32866;50.160;14.768;2023-08-31T09:36:19;98958.25;;;18.05;100.00
46876;BME280;32866;50.160;14.768;2023-08-31T09:38:45;98957.31;;;18.47;100.00
46876;BME280;32866;50.160;14.768;2023-08-31T09:41:12;98933.34;;;18.50;100.00
46876;BME280;32866;50.160;14.768;2023-08-31T09:43:38;98957.53;;;19.28;97.80
46876;BME280;32866;50.160;14.768;2023-08-31T09:46:05;98965.03;;;19.62;98.76
46876;BME280;32866;50.160;14.768;2023-08-31T09:48:31;98966.75;;;19.88;95.55
46876;BME280;32866;50.160;14.768;2023-08-31T09:50:58;98942.78;;;19.68;90.82
46876;BME280;32866;50.160;14.768;2023-08-31T09:53:24;98963.97;;;19.82;88.77
46876;BME280;32866;50.160;14.768;2023-08-31T09:55:51;98964.34;;;19.44;89.03
46876;BME280;32866;50.160;14.768;2023-08-31T09:58:19;98969.94;;;19.16;86.34
46876;BME280;32866;50.160;14.768;2023-08-31T10:00:46;98964.13;;;18.80;93.79
46876;BME280;32866;50.160;14.768;2023-08-31T10:03:12;98969.91;;;18.20;94.91
46876;BME280;32866;50.160;14.768;2023-08-31T10:05:46;98977.38;;;17.97;94.44
46876;BME280;32866;50.160;14.768;2023-08-31T10:08:12;98975.09;;;17.90;93.75
46876;BME280;32866;50.160;14.768;2023-08-31T10:10:40;98975.72;;;18.39;92.99
46876;BME280;32866;50.160;14.768;2023-08-31T10:13:07;98950.53;;;19.05;95.05
46876;BME280;32866;50.160;14.768;2023-08-31T10:15:35;98962.91;;;19.96;85.60
46876;BME280;32866;50.160;14.768;2023-08-31T10:18:06;98972.03;;;20.74;79.13
46876;BME280;32866;50.160;14.768;2023-08-31T10:20:33;98932.69;;;21.14;74.67
46876;BME280;32866;50.160;14.768;2023-08-31T10:23:02;98960.44;;;21.25;73.76
46876;BME280;32866;50.160;14.768;2023-08-31T10:28:23;98961.28;;;19.48;82.09
46876;BME280;32866;50.160;14.768;2023-08-31T10:31:09;98970.97;;;18.85;90.21
46876;BME280;32866;50.160;14.768;2023-08-31T10:33:40;98968.41;;;18.30;94.87
46876;BME280;32866;50.160;14.768;2023-08-31T10:36:15;98966.84;;;18.07;98.31
46876;BME280;32866;50.160;14.768;2023-08-31T10:38:46;98955.06;;;17.63;99.78
46876;BME280;32866;50.160;14.768;2023-08-31T10:43:54;98996.66;;;17.74;99.71
46876;BME280;32866;50.160;14.768;2023-08-31T10:46:35;98982.97;;;17.59;100.00
46876;BME280;32866;50.160;14.768;2023-08-31T10:51:48;98947.41;;;17.03;100.00
46876;BME280;32866;50.160;14.768;2023-08-31T10:54:21;98990.31;;;17.19;100.00
46876;BME280;32866;50.160;14.768;2023-08-31T10:59:43;98969.84;;;18.14;100.00
46876;BME280;32866;50.160;14.768;2023-08-31T11:02:10;98979.81;;;19.17;100.00
46876;BME280;32866;50.160;14.768;2023-08-31T11:04:55;98975.09;;;20.29;86.70
46876;BME280;32866;50.160;14.768;2023-08-31T11:07:26;98941.78;;;20.60;82.70
46876;BME280;32866;50.160;14.768;2023-08-31T11:10:06;98945.06;;;20.58;78.53
46876;BME280;32866;50.160;14.768;2023-08-31T11:12:33;98978.31;;;20.39;76.22
46876;BME280;32866;50.160;14.768;2023-08-31T11:14:59;98978.31;;;20.81;77.63
46876;BME280;32866;50.160;14.768;2023-08-31T11:17:25;98936.75;;;20.88;75.75
46876;BME280;32866;50.160;14.768;2023-08-31T11:19:51;98955.75;;;20.48;75.91
46876;BME280;32866;50.160;14.768;2023-08-31T11:22:17;98941.13;;;20.42;78.46
46876;BME280;32866;50.160;14.768;2023-08-31T11:24:43;98961.31;;;22.02;75.70
46876;BME280;32866;50.160;14.768;2023-08-31T11:27:09;98950.19;;;23.31;66.83
46876;BME280;32866;50.160;14.768;2023-08-31T11:29:43;98963.03;;;24.01;64.20
46876;BME280;32866;50.160;14.768;2023-08-31T11:32:09;98941.63;;;24.04;69.52
46876;BME280;32866;50.160;14.768;2023-08-31T11:34:40;98969.44;;;24.78;62.82
46876;BME280;32866;50.160;14.768;2023-08-31T11:37:07;98966.19;;;25.82;56.46
46876;BME280;32866;50.160;14.768;2023-08-31T11:39:33;98956.22;;;26.02;51.95
46876;BME280;32866;50.160;14.768;2023-08-31T11:41:59;98988.44;;;23.77;56.71
46876;BME280;32866;50.160;14.768;2023-08-31T11:44:25;99011.91;;;21.93;63.11
46876;BME280;32866;50.160;14.768;2023-08-31T11:46:51;98984.47;;;19.62;76.81
46876;BME280;32866;50.160;14.768;2023-08-31T11:49:18;99032.63;;;18.17;90.20
46876;BME280;32866;50.160;14.768;2023-08-31T11:51:47;99045.50;;;17.34;100.00
46876;BME280;32866;50.160;14.768;2023-08-31T11:54:16;98999.47;;;16.21;100.00
46876;BME280;32866;50.160;14.768;2023-08-31T11:56:44;99033.00;;;16.08;100.00
46876;BME280;32866;50.160;14.768;2023-08-31T11:59:18;98995.56;;;15.86;100.00
46876;BME280;32866;50.160;14.768;2023-08-31T12:01:50;98981.84;;;15.56;100.00
46876;BME280;32866;50.160;14.768;2023-08-31T12:04:20;98963.84;;;15.82;100.00
46876;BME280;32866;50.160;14.768;2023-08-31T12:06:46;99003.19;;;16.64;100.00
46876;BME280;32866;50.160;14.768;2023-08-31T12:09:15;99001.56;;;17.10;100.00
46876;BME280;32866;50.160;14.768;2023-08-31T12:11:41;98956.78;;;18.21;100.00
46876;BME280;32866;50.160;14.768;2023-08-31T12:14:28;98997.34;;;20.77;100.00
46876;BME280;32866;50.160;14.768;2023-08-31T12:17:02;98999.41;;;22.56;94.10
46876;BME280;32866;50.160;14.768;2023-08-31T12:19:32;98996.16;;;24.11;72.85
46876;BME280;32866;50.160;14.768;2023-08-31T12:21:58;98972.66;;;24.83;75.97
46876;BME280;32866;50.160;14.768;2023-08-31T12:24:25;98985.81;;;25.38;76.74
46876;BME280;32866;50.160;14.768;2023-08-31T12:26:52;98993.09;;;25.77;65.90
46876;BME280;32866;50.160;14.768;2023-08-31T12:29:23;98997.72;;;25.67;61.27
46876;BME280;32866;50.160;14.768;2023-08-31T12:31:50;99006.34;;;25.98;61.06
46876;BME280;32866;50.160;14.768;2023-08-31T12:34:16;98989.06;;;25.93;58.37
46876;BME280;32866;50.160;14.768;2023-08-31T12:36:42;98963.47;;;25.61;54.34
46876;BME280;32866;50.160;14.768;2023-08-31T12:39:08;98988.22;;;25.12;56.30
46876;BME280;32866;50.160;14.768;2023-08-31T12:41:41;98997.38;;;25.34;59.39
46876;BME280;32866;50.160;14.768;2023-08-31T12:44:07;99000.94;;;25.42;54.68
46876;BME280;32866;50.160;14.768;2023-08-31T12:46:34;99000.97;;;25.79;52.49
46876;BME280;32866;50.160;14.768;2023-08-31T12:49:01;98995.75;;;24.75;54.22
46876;BME280;32866;50.160;14.768;2023-08-31T12:51:29;99002.28;;;23.15;58.89
46876;BME280;32866;50.160;14.768;2023-08-31T12:53:56;98946.91;;;21.60;64.38
46876;BME280;32866;50.160;14.768;2023-08-31T12:56:22;98981.50;;;22.33;68.85
46876;BME280;32866;50.160;14.768;2023-08-31T12:58:52;98997.06;;;23.65;62.53
46876;BME280;32866;50.160;14.768;2023-08-31T13:01:19;98991.25;;;24.72;54.62
46876;BME280;32866;50.160;14.768;2023-08-31T13:03:46;98984.38;;;24.60;53.90